Time;durP1;ratioP1;P1;durP2;ratioP2;P2;SDS_P1;SDS_P2;PMS_P1;PMS_P2;Temp;Humidity;BMP_temperature;BMP_pressure;BME280_temperature;BME280_humidity;BME280_pressure;Samples;Min_cycle;Max_cycle;Signal;HPM_P1;HPM_P2
2023/10/12 00:01:58;;;;;;;1999.90;999.90;;;16.20;99.90;;;;;;5115396;27;20028;-73
2023/10/12 00:04:27;;;;;;;1999.90;999.90;;;16.20;99.90;;;;;;5115711;27;20032;-73
2023/10/12 00:06:52;;;;;;;1999.90;999.90;;;16.10;99.90;;;;;;5115255;27;20107;-73
2023/10/12 00:09:20;;;;;;;1999.90;999.90;;;16.10;99.90;;;;;;5115030;28;20107;-73
2023/10/12 00:11:56;;;;;;;1999.90;999.90;;;16.10;99.90;;;;;;5115442;27;20028;-73
2023/10/12 00:14:32;;;;;;;1999.90;999.90;;;16.20;99.90;;;;;;5115633;27;20032;-72
2023/10/12 00:16:59;;;;;;;1999.90;999.90;;;16.30;99.90;;;;;;5114763;27;20105;-72
2023/10/12 00:19:25;;;;;;;1999.90;999.90;;;16.20;99.90;;;;;;5115331;27;20035;-73
2023/10/12 00:21:56;;;;;;;1999.90;999.90;;;16.30;99.90;;;;;;5115410;27;20090;-72
2023/10/12 00:24:22;;;;;;;1999.90;999.90;;;16.20;99.90;;;;;;5115468;27;20024;-73
2023/10/12 00:26:49;;;;;;;1999.90;999.90;;;16.10;99.90;;;;;;5114973;27;20409;-72
2023/10/12 00:29:15;;;;;;;1999.90;999.90;;;16.10;99.90;;;;;;5115020;27;20111;-73
2023/10/12 00:31:43;;;;;;;1999.90;999.90;;;16.20;99.90;;;;;;5115074;28;20032;-73
2023/10/12 00:34:10;;;;;;;1999.90;999.90;;;16.20;99.90;;;;;;5114842;27;20024;-72
2023/10/12 00:36:37;;;;;;;1999.90;999.90;;;16.30;99.90;;;;;;5114710;27;20493;-73
2023/10/12 00:39:09;;;;;;;1999.90;999.90;;;16.20;99.90;;;;;;5113332;28;20028;-73
2023/10/12 00:41:45;;;;;;;1999.90;999.90;;;16.30;99.90;;;;;;5115287;27;20550;-72
2023/10/12 00:44:18;;;;;;;1999.90;999.90;;;16.30;99.90;;;;;;5114669;28;20037;-72
2023/10/12 00:47:43;;;;;;;1999.90;999.90;;;16.40;99.90;;;;;;5114809;27;20052;-72
2023/10/12 00:49:34;;;;;;;1999.90;999.90;;;16.30;99.90;;;;;;5109941;28;20082;-73
2023/10/12 00:52:08;;;;;;;1999.90;999.90;;;16.00;99.90;;;;;;5116702;27;20485;-72
2023/10/12 00:57:05;;;;;;;1999.90;999.90;;;16.00;99.90;;;;;;5115775;27;20516;-72
2023/10/12 00:59:43;;;;;;;1999.90;999.90;;;16.20;99.90;;;;;;5116356;28;20127;-72
2023/10/12 01:02:10;;;;;;;1999.90;999.90;;;16.30;99.90;;;;;;5118477;27;20028;-73
2023/10/12 01:04:36;;;;;;;1999.90;999.90;;;16.30;99.90;;;;;;5116822;28;20059;-73
2023/10/12 01:07:06;;;;;;;1999.90;999.90;;;16.30;99.90;;;;;;5116276;28;20145;-72
2023/10/12 01:09:45;;;;;;;1999.90;999.90;;;16.40;99.90;;;;;;5118022;27;20031;-73
2023/10/12 01:12:14;;;;;;;1999.90;999.90;;;16.50;99.90;;;;;;5118377;27;20090;-72
2023/10/12 01:14:47;;;;;;;1999.90;999.90;;;16.50;99.90;;;;;;5118084;27;20032;-73
2023/10/12 01:17:17;;;;;;;1999.90;999.90;;;16.60;99.90;;;;;;5116175;28;20386;-72
2023/10/12 01:19:46;;;;;;;1999.90;999.90;;;16.50;99.90;;;;;;5117701;27;20034;-73
2023/10/12 01:22:25;;;;;;;1999.90;999.90;;;16.40;99.90;;;;;;5117981;27;20482;-72
2023/10/12 01:27:21;;;;;;;1999.90;999.90;;;16.30;99.90;;;;;;5117806;27;20032;-73
2023/10/12 01:29:48;;;;;;;1999.90;999.90;;;16.20;99.90;;;;;;5117296;27;20482;-73
2023/10/12 01:32:22;;;;;;;1999.90;999.90;;;16.30;99.90;;;;;;5117706;27;20039;-73
2023/10/12 01:34:55;;;;;;;1999.90;999.90;;;16.30;99.90;;;;;;5116464;28;20036;-73
2023/10/12 01:37:25;;;;;;;1999.90;999.90;;;16.30;99.90;;;;;;5117424;27;20039;-72
2023/10/12 01:42:49;;;;;;;1999.90;999.90;;;16.20;99.90;;;;;;5117321;27;20040;-73
2023/10/12 01:48:04;;;;;;;1999.90;999.90;;;16.10;99.90;;;;;;5116415;27;20071;-72
2023/10/12 01:50:33;;;;;;;1999.90;999.90;;;16.10;99.90;;;;;;5117530;27;20035;-72
2023/10/12 01:52:58;;;;;;;1999.90;999.90;;;16.10;99.90;;;;;;5117178;27;20028;-72
2023/10/12 01:55:31;;;;;;;1999.90;999.90;;;16.10;99.90;;;;;;5115238;28;20367;-72
2023/10/12 01:57:57;;;;;;;1999.90;999.90;;;16.20;99.90;;;;;;5115740;28;20483;-73
2023/10/12 02:03:15;;;;;;;1999.90;999.90;;;16.20;99.90;;;;;;5106700;27;20044;-72
2023/10/12 02:05:50;;;;;;;1999.90;999.90;;;16.00;99.90;;;;;;5116998;28;20035;-72
2023/10/12 02:08:18;;;;;;;1999.90;999.90;;;15.90;99.90;;;;;;5117467;27;20024;-73
2023/10/12 02:10:55;;;;;;;1999.90;999.90;;;15.80;99.90;;;;;;5115746;28;20744;-73
2023/10/12 02:13:24;;;;;;;1999.90;999.90;;;15.90;99.90;;;;;;5117221;27;20024;-73
2023/10/12 02:15:50;;;;;;;1999.90;999.90;;;16.00;99.90;;;;;;5117008;27;20040;-72
2023/10/12 02:18:18;;;;;;;1999.90;999.90;;;16.00;99.90;;;;;;5117257;27;20031;-73
2023/10/12 02:21:06;;;;;;;1999.90;999.90;;;16.10;99.90;;;;;;5116687;27;20082;-73
2023/10/12 02:23:36;;;;;;;1999.90;999.90;;;16.10;99.90;;;;;;5116809;28;20032;-73
2023/10/12 02:26:28;;;;;;;1999.90;999.90;;;16.10;99.90;;;;;;5115269;28;20111;-72
2023/10/12 02:28:54;;;;;;;1999.90;999.90;;;16.00;99.90;;;;;;5116212;28;20036;-72
2023/10/12 02:31:27;;;;;;;1999.90;999.90;;;16.10;99.90;;;;;;5117047;28;20059;-73
2023/10/12 02:33:54;;;;;;;1999.90;999.90;;;16.00;99.90;;;;;;5117088;27;20102;-73
2023/10/12 02:36:19;;;;;;;1999.90;999.90;;;16.10;99.90;;;;;;5116564;27;20032;-72
2023/10/12 02:38:45;;;;;;;1999.90;999.90;;;16.10;99.90;;;;;;5115209;28;20028;-73
2023/10/12 02:41:13;;;;;;;1999.90;999.90;;;16.00;99.90;;;;;;5115207;28;20439;-73
2023/10/12 02:43:43;;;;;;;1999.90;999.90;;;16.10;99.90;;;;;;5116631;27;20064;-73
2023/10/12 02:46:21;;;;;;;1999.90;999.90;;;16.20;99.90;;;;;;5114587;28;20483;-72
2023/10/12 02:48:47;;;;;;;1999.90;999.90;;;16.10;99.90;;;;;;5116530;27;20081;-72
2023/10/12 02:51:14;;;;;;;1999.90;999.90;;;16.20;99.90;;;;;;5116735;28;20073;-72
2023/10/12 02:53:40;;;;;;;1999.90;999.90;;;16.40;99.90;;;;;;5116635;27;20036;-72
2023/10/12 02:56:06;;;;;;;1999.90;999.90;;;16.30;99.90;;;;;;5116287;28;20462;-72
2023/10/12 02:58:32;;;;;;;1999.90;999.90;;;16.30;99.90;;;;;;5116525;27;20028;-72
2023/10/12 03:01:13;;;;;;;1999.90;999.90;;;16.20;99.90;;;;;;5114298;28;20043;-73
2023/10/12 03:03:47;;;;;;;1999.90;999.90;;;16.20;99.90;;;;;;5116503;28;20501;-73
2023/10/12 03:06:15;;;;;;;1999.90;999.90;;;16.40;99.90;;;;;;5116387;27;20062;-72
2023/10/12 03:11:31;;;;;;;1999.90;999.90;;;16.20;99.90;;;;;;5103818;27;20147;-73
2023/10/12 03:14:01;;;;;;;1999.90;999.90;;;16.20;99.90;;;;;;5115866;27;20039;-73
2023/10/12 03:16:34;;;;;;;1999.90;999.90;;;16.00;99.90;;;;;;5114338;28;20463;-73
2023/10/12 03:19:01;;;;;;;1999.90;999.90;;;15.90;99.90;;;;;;5116021;27;20166;-73
2023/10/12 03:21:27;;;;;;;1999.90;999.90;;;15.70;99.90;;;;;;5116138;27;20035;-72
2023/10/12 03:23:57;;;;;;;1999.90;999.90;;;15.70;99.90;;;;;;5116175;27;20028;-72
2023/10/12 03:28:50;;;;;;;1999.90;999.90;;;15.90;99.90;;;;;;5115741;28;20032;-72
2023/10/12 03:31:26;;;;;;;1999.90;999.90;;;16.00;99.90;;;;;;5116153;27;20137;-73
2023/10/12 03:33:56;;;;;;;1999.90;999.90;;;15.90;99.90;;;;;;5116244;27;20117;-72
2023/10/12 03:36:23;;;;;;;1999.90;999.90;;;15.90;99.90;;;;;;5115519;27;20486;-72
2023/10/12 03:52:28;;;;;;;1999.90;999.90;;;15.20;99.90;;;;;;5114767;27;20036;-73
2023/10/12 03:57:45;;;;;;;1999.90;999.90;;;14.80;99.90;;;;;;5112772;28;20036;-72
2023/10/12 04:13:09;;;;;;;1999.90;999.90;;;13.80;99.90;;;;;;5115641;28;20032;-73
2023/10/12 04:18:27;;;;;;;1999.90;999.90;;;13.50;99.90;;;;;;5115347;28;20615;-73
2023/10/12 04:20:56;;;;;;;1999.90;999.90;;;13.50;99.90;;;;;;5115181;27;20024;-73
2023/10/12 04:23:44;;;;;;;1999.90;999.90;;;13.50;99.90;;;;;;5115131;27;20028;-74
2023/10/12 04:28:55;;;;;;;1999.90;999.90;;;13.40;99.90;;;;;;5116278;28;20024;-74
2023/10/12 04:31:21;;;;;;;1999.90;999.90;;;13.30;99.90;;;;;;5118890;27;20028;-73
2023/10/12 04:37:07;;;;;;;1999.90;999.90;;;13.30;99.90;;;;;;5118705;28;20036;-74
2023/10/12 04:39:27;;;;;;;1999.90;999.90;;;13.10;99.90;;;;;;5117688;27;20032;-72
2023/10/12 04:42:04;;;;;;;1999.90;999.90;;;13.10;99.90;;;;;;5118723;27;20074;-73
2023/10/12 04:47:03;;;;;;;1999.90;999.90;;;13.10;99.90;;;;;;5118336;28;20071;-74
2023/10/12 04:52:13;;;;;;;1999.90;999.90;;;13.00;99.90;;;;;;5117965;27;20036;-74
2023/10/12 04:57:32;;;;;;;1999.90;999.90;;;12.90;99.90;;;;;;5116975;27;20044;-73
2023/10/12 05:03:22;;;;;;;1999.90;999.90;;;12.90;99.90;;;;;;5116475;27;20115;-74
2023/10/12 05:06:04;;;;;;;1999.90;999.90;;;12.90;99.90;;;;;;5117386;28;20125;-74
2023/10/12 05:08:32;;;;;;;1999.90;999.90;;;13.00;99.90;;;;;;5117947;27;20028;-73
2023/10/12 05:10:58;;;;;;;1999.90;999.90;;;12.90;99.90;;;;;;5117695;27;20035;-73
2023/10/12 05:13:23;;;;;;;1999.90;999.90;;;12.90;99.90;;;;;;5116455;28;20055;-73
2023/10/12 05:15:56;;;;;;;1999.90;999.90;;;12.90;99.90;;;;;;5117763;28;20028;-73
2023/10/12 05:18:25;;;;;;;1999.90;999.90;;;12.90;99.90;;;;;;5116381;28;20036;-73
2023/10/12 05:20:52;;;;;;;1999.90;999.90;;;12.80;99.90;;;;;;5117925;27;20033;-73
2023/10/12 05:23:18;;;;;;;1999.90;999.90;;;12.90;99.90;;;;;;5116520;28;20036;-74
2023/10/12 05:28:21;;;;;;;1999.90;999.90;;;12.90;99.90;;;;;;5115987;28;20070;-74
2023/10/12 05:30:59;;;;;;;1999.90;999.90;;;12.90;99.90;;;;;;5117695;27;20036;-73
2023/10/12 05:34:25;;;;;;;1999.90;999.90;;;12.90;99.90;;;;;;5117814;27;20174;-74
2023/10/12 05:36:15;;;;;;;1999.90;999.90;;;12.90;99.90;;;;;;5109504;28;20040;-74
2023/10/12 05:38:49;;;;;;;1999.90;999.90;;;12.90;99.90;;;;;;5116281;27;20043;-73
2023/10/12 05:41:21;;;;;;;1999.90;999.90;;;12.90;99.90;;;;;;5116103;28;20032;-73
2023/10/12 05:43:47;;;;;;;1999.90;999.90;;;12.90;99.90;;;;;;5117694;27;20445;-73
2023/10/12 05:46:15;;;;;;;1999.90;999.90;;;12.80;99.90;;;;;;5115720;28;20036;-74
2023/10/12 05:48:45;;;;;;;1999.90;999.90;;;12.80;99.90;;;;;;5117599;28;20032;-73
2023/10/12 05:51:18;;;;;;;1999.90;999.90;;;12.90;99.90;;;;;;5117421;27;20445;-74
2023/10/12 05:53:44;;;;;;;1999.90;999.90;;;12.80;99.90;;;;;;5117009;28;20043;-73
2023/10/12 05:56:09;;;;;;;1999.90;999.90;;;12.80;99.90;;;;;;5115354;28;20486;-73
2023/10/12 05:58:38;;;;;;;1999.90;999.90;;;12.90;99.90;;;;;;5117421;28;20743;-73
2023/10/12 06:01:10;;;;;;;1999.90;999.90;;;12.90;99.90;;;;;;5115303;28;20032;-73
2023/10/12 06:03:46;;;;;;;1999.90;999.90;;;12.90;99.90;;;;;;5117628;27;20028;-74
2023/10/12 06:06:12;;;;;;;1999.90;999.90;;;13.00;99.90;;;;;;5117497;27;20028;-74
2023/10/12 06:08:39;;;;;;;1999.90;999.90;;;13.10;99.90;;;;;;5117060;27;20051;-74
2023/10/12 06:11:07;;;;;;;1999.90;999.90;;;13.20;99.90;;;;;;5117719;27;20038;-75
2023/10/12 06:13:41;;;;;;;1999.90;999.90;;;13.30;99.90;;;;;;5116003;28;20032;-74
2023/10/12 06:16:14;;;;;;;1999.90;999.90;;;13.30;99.90;;;;;;5117510;27;20028;-73
2023/10/12 06:18:44;;;;;;;1999.90;999.90;;;13.40;99.90;;;;;;5115760;28;20032;-77
2023/10/12 06:21:17;;;;;;;1999.90;999.90;;;13.50;99.90;;;;;;5106207;28;20037;-74
2023/10/12 06:23:52;;;;;;;1999.90;999.90;;;13.60;99.90;;;;;;5095087;28;20047;-74
2023/10/12 06:26:34;;;;;;;1999.90;999.90;;;13.70;99.90;;;;;;5097341;28;20036;-74
2023/10/12 06:29:00;;;;;;;1999.90;999.90;;;13.70;99.90;;;;;;5114084;28;20027;-73
2023/10/12 06:31:29;;;;;;;1999.90;999.90;;;13.80;99.90;;;;;;5114973;28;20417;-73
2023/10/12 06:33:56;;;;;;;1999.90;999.90;;;14.00;99.90;;;;;;5113498;28;20024;-73
2023/10/12 06:36:23;;;;;;;1999.90;999.90;;;14.10;99.90;;;;;;5115664;27;20071;-73
2023/10/12 06:44:22;;;;;;;1999.90;999.90;;;14.50;99.90;;;;;;5116421;28;20036;-75
2023/10/12 06:46:49;;;;;;;1999.90;999.90;;;14.60;99.90;;;;;;5112281;27;21046;-74
2023/10/12 06:49:22;;;;;;;1999.90;999.90;;;14.70;99.90;;;;;;5114171;27;20036;-75
2023/10/12 06:51:53;;;;;;;1999.90;999.90;;;14.80;99.90;;;;;;5114836;28;20055;-75
2023/10/12 06:54:31;;;;;;;1999.90;999.90;;;15.00;99.90;;;;;;5115116;28;20038;-75
2023/10/12 06:57:29;;;;;;;1999.90;999.90;;;15.10;99.90;;;;;;5114796;28;20044;-74
2023/10/12 07:02:28;;;;;;;1999.90;999.90;;;15.20;99.90;;;;;;5113204;27;20036;-75
2023/10/12 07:04:54;;;;;;;1999.90;999.90;;;15.40;99.90;;;;;;5116274;27;20028;-74
2023/10/12 07:07:27;;;;;;;1999.90;999.90;;;15.40;99.90;;;;;;5115942;27;20035;-75
2023/10/12 07:09:54;;;;;;;1999.90;999.90;;;15.40;99.90;;;;;;5116184;27;20032;-75
2023/10/12 07:12:20;;;;;;;1999.90;999.90;;;15.40;99.90;;;;;;5107661;27;20045;-75
2023/10/12 07:14:46;;;;;;;1999.90;999.90;;;15.40;99.90;;;;;;5099898;28;20033;-77
2023/10/12 07:17:16;;;;;;;1999.90;999.90;;;15.50;99.90;;;;;;5106350;28;20047;-76
2023/10/12 07:19:49;;;;;;;1999.90;999.90;;;15.50;99.90;;;;;;5099981;28;20032;-75
2023/10/12 07:22:15;;;;;;;1999.90;999.90;;;15.60;99.90;;;;;;5105682;28;20517;-75
2023/10/12 07:24:54;;;;;;;1999.90;999.90;;;15.70;99.90;;;;;;5107385;27;20034;-74
2023/10/12 07:27:28;;;;;;;1999.90;999.90;;;15.80;99.90;;;;;;5101415;28;20032;-74
2023/10/12 07:30:18;;;;;;;1999.90;999.90;;;16.10;99.90;;;;;;5100936;28;20111;-75
2023/10/12 07:32:55;;;;;;;1999.90;999.90;;;16.10;99.90;;;;;;5104878;28;20040;-74
2023/10/12 07:35:34;;;;;;;1999.90;999.90;;;16.30;99.90;;;;;;5107927;28;20489;-75
2023/10/12 07:38:12;;;;;;;1999.90;999.90;;;16.30;99.90;;;;;;5108913;27;20044;-75
2023/10/12 07:40:48;;;;;;;1999.90;999.90;;;16.40;99.90;;;;;;5115399;27;20024;-75
2023/10/12 07:43:18;;;;;;;1999.90;999.90;;;16.60;99.90;;;;;;5114808;27;20036;-75
2023/10/12 07:45:53;;;;;;;1999.90;999.90;;;16.50;99.90;;;;;;5099267;28;20068;-75
2023/10/12 07:48:39;;;;;;;1999.90;999.90;;;16.40;99.90;;;;;;5104589;28;20040;-75
2023/10/12 07:51:18;;;;;;;1999.90;999.90;;;16.40;99.90;;;;;;5104488;28;20055;-75
2023/10/12 07:53:51;;;;;;;1999.90;999.90;;;16.40;99.90;;;;;;5104899;28;20039;-75
2023/10/12 07:56:17;;;;;;;1999.90;999.90;;;16.50;99.90;;;;;;5108696;27;20090;-75
2023/10/12 07:58:51;;;;;;;1999.90;999.90;;;16.40;99.90;;;;;;5115491;27;20420;-75
2023/10/12 08:01:26;;;;;;;1999.90;999.90;;;16.40;99.90;;;;;;5114584;27;20040;-74
2023/10/12 08:03:52;;;;;;;1999.90;999.90;;;16.60;99.90;;;;;;5115770;27;20052;-75
2023/10/12 08:06:28;;;;;;;1999.90;999.90;;;16.60;99.90;;;;;;5115318;27;20471;-75
2023/10/12 08:09:02;;;;;;;1999.90;999.90;;;16.50;99.90;;;;;;5115379;27;20020;-75
2023/10/12 08:11:28;;;;;;;1999.90;999.90;;;16.60;99.90;;;;;;5113778;28;20028;-75
2023/10/12 08:14:39;;;;;;;1999.90;999.90;;;16.60;99.90;;;;;;5113858;28;20474;-75
2023/10/12 08:19:44;;;;;;;1999.90;999.90;;;16.90;99.90;;;;;;5115180;28;20028;-75
2023/10/12 08:22:26;;;;;;;1999.90;999.90;;;17.10;99.90;;;;;;5115414;28;20068;-75
2023/10/12 08:24:56;;;;;;;1999.90;999.90;;;17.20;99.90;;;;;;5115362;27;20028;-75
2023/10/12 08:27:23;;;;;;;1999.90;999.90;;;17.50;99.90;;;;;;5114828;27;20039;-75
2023/10/12 08:32:27;;;;;;;1999.90;999.90;;;17.70;99.90;;;;;;5114974;28;20040;-75
2023/10/12 08:37:27;;;;;;;1999.90;999.90;;;18.10;99.90;;;;;;5099722;28;20045;-76
2023/10/12 08:44:58;;;;;;;1999.90;999.90;;;18.10;99.90;;;;;;5091558;28;20068;-75
2023/10/12 08:52:33;;;;;;;1999.90;999.90;;;18.50;99.90;;;;;;5094672;28;20037;-75
2023/10/12 08:55:05;;;;;;;1999.90;999.90;;;18.30;99.90;;;;;;5094945;28;20033;-74
2023/10/12 08:57:43;;;;;;;1999.90;999.90;;;18.40;99.90;;;;;;5094036;28;20037;-75
2023/10/12 09:02:52;;;;;;;1999.90;999.90;;;18.70;99.90;;;;;;5093074;28;20037;-74
2023/10/12 09:05:24;;;;;;;1999.90;999.90;;;18.70;99.90;;;;;;5094424;28;20112;-75
2023/10/12 09:08:06;;;;;;;1999.90;999.90;;;18.90;99.90;;;;;;5092698;28;20063;-74
2023/10/12 09:10:58;;;;;;;1999.90;999.90;;;18.80;99.90;;;;;;5092507;28;20086;-75
2023/10/12 09:13:26;;;;;;;1999.90;999.90;;;18.80;99.90;;;;;;5095488;28;20135;-75
2023/10/12 09:15:56;;;;;;;1999.90;999.90;;;18.80;99.90;;;;;;5097274;28;20029;-75
2023/10/12 09:18:33;;;;;;;1999.90;999.90;;;18.90;99.90;;;;;;5095738;28;20040;-75
2023/10/12 09:23:33;;;;;;;1999.90;999.90;;;19.20;99.90;;;;;;5097623;28;20043;-75
2023/10/12 09:36:44;;;;;;;1999.90;999.90;;;19.30;99.90;;;;;;5094022;28;20084;-74
2023/10/12 09:39:14;;;;;;;1999.90;999.90;;;19.40;99.90;;;;;;5097441;28;20028;-76
2023/10/12 09:41:42;;;;;;;1999.90;999.90;;;19.40;99.90;;;;;;5095624;28;20036;-75
2023/10/12 09:44:11;;;;;;;1999.90;999.90;;;19.50;99.90;;;;;;5097505;28;20479;-75
2023/10/12 09:46:48;;;;;;;1999.90;999.90;;;19.50;99.90;;;;;;5097017;28;20033;-75
2023/10/12 09:49:24;;;;;;;1999.90;999.90;;;19.60;99.90;;;;;;5097039;28;20115;-76
2023/10/12 09:51:54;;;;;;;1999.90;999.90;;;19.60;99.90;;;;;;5097307;28;20476;-75
2023/10/12 09:54:28;;;;;;;1999.90;999.90;;;19.40;99.90;;;;;;5097011;28;20474;-75
2023/10/12 09:57:06;;;;;;;1999.90;999.90;;;19.60;99.90;;;;;;5096730;28;20049;-74
2023/10/12 09:59:38;;;;;;;1999.90;999.90;;;19.70;99.90;;;;;;5119098;22;20253;-76
2023/10/12 10:02:27;;;;;;;1999.90;999.90;;;19.70;99.90;;;;;;5096840;28;20131;-76
2023/10/12 10:05:01;;;;;;;1999.90;999.90;;;19.80;99.90;;;;;;5097328;28;20029;-76
2023/10/12 10:07:35;;;;;;;1999.90;999.90;;;19.90;99.90;;;;;;5096889;28;20127;-76
2023/10/12 10:10:06;;;;;;;1999.90;999.90;;;19.90;99.90;;;;;;5096862;28;20040;-74
2023/10/12 10:12:42;;;;;;;1999.90;999.90;;;19.90;99.90;;;;;;5095084;28;20036;-76
2023/10/12 10:15:18;;;;;;;1999.90;999.90;;;19.80;99.90;;;;;;5096588;28;20035;-76
2023/10/12 10:17:55;;;;;;;1999.90;999.90;;;19.80;99.90;;;;;;5096345;28;20060;-74
2023/10/12 10:22:58;;;;;;;1999.90;999.90;;;19.90;99.90;;;;;;5094219;28;20029;-73
2023/10/12 10:25:46;;;;;;;1999.90;999.90;;;20.10;99.90;;;;;;5094209;28;20485;-73
2023/10/12 10:28:28;;;;;;;1999.90;999.90;;;20.10;99.90;;;;;;5096594;28;20489;-74
2023/10/12 10:30:59;;;;;;;1999.90;999.90;;;20.20;99.90;;;;;;5093493;28;20028;-73
2023/10/12 10:33:26;;;;;;;1999.90;999.90;;;20.10;99.90;;;;;;5095968;28;20102;-73
2023/10/12 10:35:56;;;;;;;1999.90;999.90;;;20.00;99.90;;;;;;5095403;28;20115;-74
2023/10/12 10:38:23;;;;;;;1999.90;999.90;;;19.80;99.90;;;;;;5095668;28;20502;-73
2023/10/12 10:40:49;;;;;;;1999.90;999.90;;;19.80;99.90;;;;;;5095544;28;20036;-73
2023/10/12 10:43:15;;;;;;;1999.90;999.90;;;19.80;99.90;;;;;;5095452;28;20037;-74
2023/10/12 10:45:56;;;;;;;1999.90;999.90;;;19.90;99.90;;;;;;5095428;28;20028;-73
2023/10/12 10:48:27;;;;;;;1999.90;999.90;;;20.00;99.90;;;;;;5094024;28;20041;-73
2023/10/12 10:50:53;;;;;;;1999.90;999.90;;;20.30;99.90;;;;;;5095496;28;20102;-73
2023/10/12 10:53:20;;;;;;;1999.90;999.90;;;20.50;99.90;;;;;;5095584;28;20425;-73
2023/10/12 10:55:47;;;;;;;1999.90;999.90;;;20.70;99.90;;;;;;5093757;28;20148;-74
2023/10/12 10:58:17;;;;;;;1999.90;999.90;;;20.90;99.90;;;;;;5095104;28;20087;-73
2023/10/12 11:00:46;;;;;;;1999.90;999.90;;;21.00;99.90;;;;;;5094402;28;20024;-73
2023/10/12 11:03:16;;;;;;;1999.90;999.90;;;21.20;99.90;;;;;;5094740;28;20033;-73
2023/10/12 11:05:44;;;;;;;1999.90;999.90;;;21.40;99.90;;;;;;5094760;28;20067;-74
2023/10/12 11:08:19;;;;;;;1999.90;999.90;;;21.50;99.90;;;;;;5093799;28;20063;-73
2023/10/12 11:13:33;;;;;;;1999.90;999.90;;;21.50;99.90;;;;;;5094307;28;20098;-73
2023/10/12 11:16:20;;;;;;;1999.90;999.90;;;21.70;99.90;;;;;;5093564;28;20033;-73
2023/10/12 11:18:51;;;;;;;1999.90;999.90;;;21.70;99.90;;;;;;5092663;28;20041;-77
2023/10/12 11:21:18;;;;;;;1999.90;999.90;;;21.80;99.90;;;;;;5094205;28;20031;-73
2023/10/12 11:23:46;;;;;;;1999.90;999.90;;;22.00;99.90;;;;;;5095943;28;20040;-73
2023/10/12 11:26:17;;;;;;;1999.90;999.90;;;22.10;99.90;;;;;;5095497;28;20115;-73
2023/10/12 11:28:44;;;;;;;1999.90;999.90;;;22.30;99.90;;;;;;5095838;28;20028;-73
2023/10/12 11:31:30;;;;;;;1999.90;999.90;;;22.30;99.90;;;;;;5095416;28;20025;-73
2023/10/12 11:33:56;;;;;;;1999.90;999.90;;;22.00;99.90;;;;;;5095713;28;20029;-73
2023/10/12 11:36:25;;;;;;;1999.90;999.90;;;21.60;99.90;;;;;;5095184;28;20029;-73
2023/10/12 11:39:02;;;;;;;1999.90;999.90;;;21.50;99.90;;;;;;5095505;28;20032;-73
2023/10/12 11:41:28;;;;;;;1999.90;999.90;;;21.40;99.90;;;;;;5095482;28;20025;-73
2023/10/12 11:43:57;;;;;;;1999.90;999.90;;;21.50;99.90;;;;;;5094049;28;20036;-73
2023/10/12 11:46:24;;;;;;;1999.90;999.90;;;21.40;99.90;;;;;;5095095;28;20024;-74
2023/10/12 11:49:08;;;;;;;1999.90;999.90;;;21.50;99.90;;;;;;5095381;28;20037;-73
2023/10/12 11:51:50;;;;;;;1999.90;999.90;;;21.70;99.90;;;;;;5095109;28;20055;-73
2023/10/12 11:54:19;;;;;;;1999.90;999.90;;;21.80;99.90;;;;;;5095747;28;20866;-73
2023/10/12 11:56:46;;;;;;;1999.90;999.90;;;22.00;99.90;;;;;;5094795;28;20059;-73
2023/10/12 11:59:19;;;;;;;1999.90;999.90;;;22.00;99.90;;;;;;5095239;28;20028;-73
2023/10/12 12:01:45;;;;;;;1999.90;999.90;;;22.00;99.90;;;;;;5095268;28;20028;-73
2023/10/12 12:04:23;;;;;;;1999.90;999.90;;;22.00;99.90;;;;;;5095280;28;20031;-73
2023/10/12 12:06:50;;;;;;;1999.90;999.90;;;22.10;99.90;;;;;;5094895;28;20597;-74
2023/10/12 12:09:17;;;;;;;1999.90;999.90;;;22.10;99.90;;;;;;5095056;28;20024;-73
2023/10/12 12:11:42;;;;;;;1999.90;999.90;;;22.20;99.90;;;;;;5095193;28;20032;-73
2023/10/12 12:14:08;;;;;;;1999.90;999.90;;;22.30;99.90;;;;;;5094842;28;20037;-73
2023/10/12 12:16:38;;;;;;;1999.90;999.90;;;22.30;99.90;;;;;;5094366;28;20037;-73
2023/10/12 12:19:04;;;;;;;1999.90;999.90;;;22.30;99.90;;;;;;5093331;28;20527;-74
2023/10/12 12:21:31;;;;;;;1999.90;999.90;;;22.30;99.90;;;;;;5094630;28;20029;-74
2023/10/12 12:24:05;;;;;;;1999.90;999.90;;;22.40;99.90;;;;;;5093495;28;20036;-73
2023/10/12 12:26:33;;;;;;;1999.90;999.90;;;22.40;99.90;;;;;;5094817;28;20558;-74
2023/10/12 12:29:05;;;;;;;1999.90;999.90;;;22.60;99.90;;;;;;5094738;28;20036;-73
2023/10/12 12:31:34;;;;;;;1999.90;999.90;;;22.80;99.90;;;;;;5094849;28;20086;-73
2023/10/12 12:34:01;;;;;;;1999.90;999.90;;;22.80;99.90;;;;;;5093228;28;20063;-73
2023/10/12 12:36:29;;;;;;;1999.90;999.90;;;22.80;99.90;;;;;;5094381;28;20090;-73
2023/10/12 12:39:00;;;;;;;1999.90;999.90;;;22.80;99.90;;;;;;5093247;28;20509;-73
2023/10/12 12:41:26;;;;;;;1999.90;999.90;;;22.70;99.90;;;;;;5094254;28;20029;-74
2023/10/12 12:43:52;;;;;;;1999.90;999.90;;;22.70;99.90;;;;;;5094620;28;20102;-75
2023/10/12 12:46:19;;;;;;;1999.90;999.90;;;22.70;99.90;;;;;;5092892;28;20587;-75
2023/10/12 12:48:48;;;;;;;1999.90;999.90;;;22.60;99.90;;;;;;5096325;28;20032;-75
2023/10/12 12:51:18;;;;;;;1999.90;999.90;;;22.50;99.90;;;;;;5098072;28;20036;-74
2023/10/12 12:53:48;;;;;;;1999.90;999.90;;;22.40;99.90;;;;;;5098195;28;20028;-75
2023/10/12 12:56:19;;;;;;;1999.90;999.90;;;22.40;99.90;;;;;;5097756;28;20114;-75
2023/10/12 12:58:46;;;;;;;1999.90;999.90;;;22.30;99.90;;;;;;5097603;28;20048;-75
2023/10/12 13:01:13;;;;;;;1999.90;999.90;;;22.20;99.90;;;;;;5097683;28;20039;-75
2023/10/12 13:03:39;;;;;;;1999.90;999.90;;;22.10;99.90;;;;;;5098174;28;20108;-75
2023/10/12 13:06:07;;;;;;;1999.90;999.90;;;22.10;99.90;;;;;;5097653;28;20037;-75
2023/10/12 13:08:36;;;;;;;1999.90;999.90;;;22.10;99.90;;;;;;5097905;28;20052;-75
2023/10/12 13:11:04;;;;;;;1999.90;999.90;;;22.10;99.90;;;;;;5097685;28;20780;-76
2023/10/12 13:13:33;;;;;;;1999.90;999.90;;;22.10;99.90;;;;;;5096400;28;20048;-75
2023/10/12 13:16:05;;;;;;;1999.90;999.90;;;22.10;99.90;;;;;;5097511;28;20052;-75
2023/10/12 13:18:33;;;;;;;1999.90;999.90;;;22.00;99.90;;;;;;5097934;28;20045;-75
2023/10/12 13:21:01;;;;;;;1999.90;999.90;;;21.90;99.90;;;;;;5097520;28;20025;-75
2023/10/12 13:23:26;;;;;;;1999.90;999.90;;;22.00;99.90;;;;;;5097774;28;20036;-75
2023/10/12 13:25:53;;;;;;;1999.90;999.90;;;22.10;99.90;;;;;;5097220;28;20033;-75
2023/10/12 13:28:18;;;;;;;1999.90;999.90;;;22.10;99.90;;;;;;5081249;28;20124;-75
2023/10/12 13:30:44;;;;;;;1999.90;999.90;;;22.20;99.90;;;;;;5096830;28;20036;-75
2023/10/12 13:33:13;;;;;;;1999.90;999.90;;;22.30;99.90;;;;;;5095605;28;20033;-75
2023/10/12 13:35:42;;;;;;;1999.90;999.90;;;22.40;99.90;;;;;;5097204;28;20040;-75
2023/10/12 13:38:13;;;;;;;1999.90;999.90;;;22.40;99.90;;;;;;5095784;28;20041;-75
2023/10/12 13:40:40;;;;;;;1999.90;999.90;;;22.40;99.90;;;;;;5095697;28;20025;-75
2023/10/12 13:43:15;;;;;;;1999.90;999.90;;;22.50;99.90;;;;;;5097348;28;20087;-75
2023/10/12 13:45:49;;;;;;;1999.90;999.90;;;22.50;99.90;;;;;;5097612;28;20028;-76
2023/10/12 13:48:22;;;;;;;1999.90;999.90;;;22.30;99.90;;;;;;5089739;28;20041;-75
2023/10/12 13:51:04;;;;;;;1999.90;999.90;;;22.30;99.90;;;;;;5075387;28;20434;-76
2023/10/12 13:53:36;;;;;;;1999.90;999.90;;;22.10;99.90;;;;;;5077080;28;20036;-76
2023/10/12 13:56:08;;;;;;;1999.90;999.90;;;22.00;99.90;;;;;;5076605;28;20025;-75
2023/10/12 13:58:35;;;;;;;1999.90;999.90;;;21.90;99.90;;;;;;5075749;28;20112;-75
2023/10/12 14:01:02;;;;;;;1999.90;999.90;;;21.80;99.90;;;;;;5076351;28;20119;-75
2023/10/12 14:03:38;;;;;;;1999.90;999.90;;;21.70;99.90;;;;;;5095902;28;20482;-75
2023/10/12 14:06:07;;;;;;;1999.90;999.90;;;21.80;99.90;;;;;;5114721;28;20540;-75
2023/10/12 14:08:40;;;;;;;1999.90;999.90;;;22.00;99.90;;;;;;5115996;28;20060;-75
2023/10/12 14:11:06;;;;;;;1999.90;999.90;;;22.10;99.90;;;;;;5117138;27;20393;-75
2023/10/12 14:13:33;;;;;;;1999.90;999.90;;;22.10;99.90;;;;;;5112904;27;20039;-75
2023/10/12 14:16:00;;;;;;;1999.90;999.90;;;22.10;99.90;;;;;;5094642;28;20029;-75